EWG7NB EDDH-LEPA
Flight info
| Callsign | EWG7NB |
|---|---|
| Flight time | 2h 19m |
| Altitude | 36000 |
| Route | HABFU1G/33 HABFU Y348 DOMEG DCT LIRSU DCT LIMGO/N0447F350 N852 SUTAL DCT GTQ DCT POGOL DCT LASAT DCT MOROK DCT GILIR DCT GEVEA DCT INCUS DCT BALSI DCT RETNO DCT TUPOX DCT MTG DCT DIVKO DCT VATIR N852 PIVUS DCT BODEQ N852 VERSO DCT LUNIK |
| Aircraft | A320/M-SDE3FGHIRWY/LB1 |
Departure
| Time | 2026-04-23 18:54 |
|---|---|
| Airport | Hamburg Helmut Schmidt Airport (EDDH) |
Arrival
| Time | 2026-04-23 21:14 |
|---|---|
| Airport | Palma de Mallorca Airport (LEPA) |
| Time | Latitude | Longitude | Altitude | Speed | Heading |
|---|---|---|---|---|---|
| 2026-04-23 17:55 | 53.62810 | 10.00250 | 49 ft | 0 kts | 63° |
| 2026-04-23 17:56 | 53.62809 | 10.00246 | 49 ft | 0 kts | 62° |
| 2026-04-23 18:47 | 53.62806 | 10.00238 | 47 ft | 3 kts | 62° |
| 2026-04-23 18:47 | 53.62794 | 10.00198 | 48 ft | 4 kts | 62° |
| 2026-04-23 18:47 | 53.62784 | 10.00166 | 48 ft | 4 kts | 57° |
| 2026-04-23 18:47 | 53.62768 | 10.00142 | 48 ft | 4 kts | 352° |
| 2026-04-23 18:48 | 53.62746 | 10.00157 | 48 ft | 3 kts | 333° |
| 2026-04-23 18:48 | 53.62744 | 10.00159 | 48 ft | 0 kts | 333° |
| 2026-04-23 18:51 | 53.62747 | 10.00156 | 48 ft | 3 kts | 333° |
| 2026-04-23 18:51 | 53.62781 | 10.00126 | 46 ft | 7 kts | 333° |
| 2026-04-23 18:51 | 53.62832 | 10.00081 | 47 ft | 9 kts | 326° |
| 2026-04-23 18:52 | 53.62852 | 10.00037 | 48 ft | 0 kts | 293° |
| 2026-04-23 18:52 | 53.62854 | 10.00021 | 46 ft | 5 kts | 279° |
| 2026-04-23 18:52 | 53.62842 | 9.99953 | 47 ft | 0 kts | 245° |
| 2026-04-23 18:52 | 53.62842 | 9.99952 | 47 ft | 1 kts | 245° |
| 2026-04-23 18:53 | 53.62834 | 9.99925 | 47 ft | 4 kts | 245° |
| 2026-04-23 18:53 | 53.62814 | 9.99853 | 45 ft | 11 kts | 246° |
| 2026-04-23 18:53 | 53.62863 | 9.99751 | 45 ft | 15 kts | 334° |
| 2026-04-23 18:53 | 53.63068 | 9.99571 | 46 ft | 64 kts | 332° |
| 2026-04-23 18:54 | 53.63646 | 9.99066 | 48 ft | 122 kts | 333° |
| 2026-04-23 18:54 | 53.64551 | 9.98292 | 102 ft | 163 kts | 332° |
| 2026-04-23 18:54 | 53.65581 | 9.97453 | 648 ft | 165 kts | 330° |
| 2026-04-23 18:54 | 53.66598 | 9.96587 | 1384 ft | 165 kts | 332° |
| 2026-04-23 18:55 | 53.67670 | 9.95663 | 1759 ft | 182 kts | 333° |
| 2026-04-23 18:55 | 53.68816 | 9.94673 | 2326 ft | 188 kts | 333° |
| 2026-04-23 18:55 | 53.69981 | 9.93669 | 3055 ft | 188 kts | 333° |
| 2026-04-23 18:55 | 53.71097 | 9.92480 | 3722 ft | 194 kts | 314° |
| 2026-04-23 18:56 | 53.71532 | 9.91141 | 4136 ft | 204 kts | 288° |
| 2026-04-23 18:56 | 53.71328 | 9.87681 | 4669 ft | 239 kts | 261° |
| 2026-04-23 18:56 | 53.70802 | 9.84880 | 4964 ft | 261 kts | 257° |
| 2026-04-23 18:56 | 53.70175 | 9.81951 | 5008 ft | 267 kts | 256° |
| 2026-04-23 18:57 | 53.69531 | 9.79022 | 5010 ft | 266 kts | 256° |
| 2026-04-23 18:57 | 53.68896 | 9.76074 | 5016 ft | 267 kts | 256° |
| 2026-04-23 18:57 | 53.68274 | 9.73121 | 5030 ft | 267 kts | 257° |
| 2026-04-23 18:57 | 53.67669 | 9.70178 | 5199 ft | 264 kts | 257° |
| 2026-04-23 18:58 | 53.67077 | 9.67224 | 5570 ft | 267 kts | 258° |
| 2026-04-23 18:58 | 53.66489 | 9.64243 | 5951 ft | 269 kts | 258° |
| 2026-04-23 18:58 | 53.65864 | 9.61246 | 6334 ft | 275 kts | 252° |
| 2026-04-23 18:58 | 53.64860 | 9.58501 | 6714 ft | 285 kts | 235° |
| 2026-04-23 18:59 | 53.63367 | 9.56233 | 7077 ft | 294 kts | 217° |
| 2026-04-23 18:59 | 53.61565 | 9.54538 | 7444 ft | 298 kts | 212° |
| 2026-04-23 18:59 | 53.59738 | 9.52878 | 7806 ft | 300 kts | 212° |
| 2026-04-23 18:59 | 53.57896 | 9.51193 | 8182 ft | 302 kts | 212° |
| 2026-04-23 19:00 | 53.56050 | 9.49500 | 8559 ft | 302 kts | 212° |
| 2026-04-23 19:00 | 53.54203 | 9.47808 | 8936 ft | 303 kts | 212° |
| 2026-04-23 19:00 | 53.52332 | 9.46106 | 9331 ft | 305 kts | 212° |
| 2026-04-23 19:00 | 53.50452 | 9.44393 | 9948 ft | 308 kts | 212° |
| 2026-04-23 19:01 | 53.48572 | 9.42680 | 10470 ft | 320 kts | 212° |
| 2026-04-23 19:01 | 53.47223 | 9.41444 | 10594 ft | 336 kts | 212° |
| 2026-04-23 19:01 | 53.44392 | 9.38846 | 10942 ft | 360 kts | 211° |
| 2026-04-23 19:01 | 53.42176 | 9.36827 | 11542 ft | 366 kts | 211° |
| 2026-04-23 19:02 | 53.40655 | 9.35447 | 11987 ft | 368 kts | 211° |
| 2026-04-23 19:02 | 53.37646 | 9.32729 | 12859 ft | 374 kts | 211° |
| 2026-04-23 19:02 | 53.36097 | 9.31329 | 13305 ft | 376 kts | 210° |
| 2026-04-23 19:02 | 53.33773 | 9.29256 | 13947 ft | 380 kts | 207° |
| 2026-04-23 19:03 | 53.31279 | 9.27707 | 14521 ft | 386 kts | 195° |
| 2026-04-23 19:03 | 53.28658 | 9.26852 | 15107 ft | 389 kts | 191° |
| 2026-04-23 19:03 | 53.25980 | 9.26067 | 15716 ft | 391 kts | 191° |
| 2026-04-23 19:03 | 53.23297 | 9.25276 | 16307 ft | 393 kts | 191° |
| 2026-04-23 19:04 | 53.20594 | 9.24473 | 16896 ft | 395 kts | 191° |
| 2026-04-23 19:04 | 53.17911 | 9.23675 | 17455 ft | 398 kts | 191° |
| 2026-04-23 19:04 | 53.15139 | 9.22849 | 18027 ft | 401 kts | 191° |
| 2026-04-23 19:04 | 53.12384 | 9.22026 | 18583 ft | 404 kts | 191° |
| 2026-04-23 19:05 | 53.09611 | 9.21200 | 19078 ft | 406 kts | 191° |
| 2026-04-23 19:05 | 53.06825 | 9.20376 | 19589 ft | 408 kts | 191° |
| 2026-04-23 19:05 | 53.04012 | 9.19548 | 20062 ft | 411 kts | 191° |
| 2026-04-23 19:05 | 53.01186 | 9.18715 | 20341 ft | 414 kts | 191° |
| 2026-04-23 19:06 | 52.98340 | 9.17876 | 20863 ft | 416 kts | 191° |
| 2026-04-23 19:06 | 52.95511 | 9.16791 | 21362 ft | 417 kts | 199° |
| 2026-04-23 19:06 | 52.92824 | 9.14956 | 21836 ft | 418 kts | 209° |
| 2026-04-23 19:06 | 52.90250 | 9.12688 | 22275 ft | 421 kts | 210° |
| 2026-04-23 19:07 | 52.87659 | 9.10401 | 22739 ft | 423 kts | 209° |
| 2026-04-23 19:07 | 52.85056 | 9.08107 | 23210 ft | 425 kts | 210° |
| 2026-04-23 19:07 | 52.82436 | 9.05806 | 23613 ft | 428 kts | 210° |
| 2026-04-23 19:07 | 52.79793 | 9.03496 | 23985 ft | 431 kts | 209° |
| 2026-04-23 19:08 | 52.77135 | 9.01180 | 24238 ft | 432 kts | 209° |
| 2026-04-23 19:08 | 52.74474 | 8.98869 | 24297 ft | 432 kts | 208° |
| 2026-04-23 19:08 | 52.71812 | 8.96559 | 24310 ft | 433 kts | 209° |
| 2026-04-23 19:08 | 52.69139 | 8.94239 | 24607 ft | 435 kts | 208° |
| 2026-04-23 19:09 | 52.66457 | 8.91913 | 25007 ft | 436 kts | 208° |
| 2026-04-23 19:09 | 52.63768 | 8.89583 | 25302 ft | 439 kts | 208° |
| 2026-04-23 19:09 | 52.61058 | 8.87237 | 25629 ft | 441 kts | 208° |
| 2026-04-23 19:09 | 52.58344 | 8.84887 | 25985 ft | 441 kts | 208° |
| 2026-04-23 19:10 | 52.55621 | 8.82531 | 26306 ft | 443 kts | 208° |
| 2026-04-23 19:10 | 52.52880 | 8.80162 | 26599 ft | 446 kts | 208° |
| 2026-04-23 19:10 | 52.50131 | 8.77790 | 26935 ft | 447 kts | 208° |
| 2026-04-23 19:10 | 52.47406 | 8.75450 | 27249 ft | 449 kts | 207° |
| 2026-04-23 19:11 | 52.44633 | 8.73073 | 27523 ft | 451 kts | 207° |
| 2026-04-23 19:11 | 52.41850 | 8.70689 | 27856 ft | 452 kts | 207° |
| 2026-04-23 19:11 | 52.39064 | 8.68299 | 28186 ft | 453 kts | 207° |
| 2026-04-23 19:11 | 52.36270 | 8.65907 | 28449 ft | 455 kts | 207° |
| 2026-04-23 19:12 | 52.33457 | 8.63508 | 28729 ft | 456 kts | 207° |
| 2026-04-23 19:12 | 52.30640 | 8.61102 | 29029 ft | 457 kts | 207° |
| 2026-04-23 19:12 | 52.27936 | 8.58347 | 29253 ft | 460 kts | 216° |
| 2026-04-23 19:12 | 52.25510 | 8.54935 | 29497 ft | 462 kts | 225° |
| 2026-04-23 19:13 | 52.23340 | 8.51058 | 29742 ft | 463 kts | 227° |
| 2026-04-23 19:13 | 52.21176 | 8.47149 | 29959 ft | 465 kts | 227° |
| 2026-04-23 19:13 | 52.18993 | 8.43237 | 30165 ft | 467 kts | 227° |
| 2026-04-23 19:13 | 52.16802 | 8.39332 | 30399 ft | 467 kts | 227° |
| 2026-04-23 19:14 | 52.14605 | 8.35425 | 30651 ft | 466 kts | 226° |
| 2026-04-23 19:14 | 52.12421 | 8.31549 | 30951 ft | 464 kts | 226° |
| 2026-04-23 19:14 | 52.10245 | 8.27690 | 31232 ft | 462 kts | 227° |
| 2026-04-23 19:14 | 52.08069 | 8.23825 | 31461 ft | 462 kts | 226° |
| 2026-04-23 19:15 | 52.05898 | 8.19969 | 31705 ft | 461 kts | 226° |
| 2026-04-23 19:15 | 52.03734 | 8.16132 | 31956 ft | 461 kts | 226° |
| 2026-04-23 19:15 | 52.01566 | 8.12288 | 32192 ft | 461 kts | 226° |
| 2026-04-23 19:15 | 51.99398 | 8.08455 | 32311 ft | 460 kts | 226° |
| 2026-04-23 19:16 | 51.97230 | 8.04628 | 32332 ft | 460 kts | 226° |
| 2026-04-23 19:16 | 51.92903 | 7.96996 | 32331 ft | 460 kts | 226° |
| 2026-04-23 19:17 | 51.86395 | 7.85583 | 32332 ft | 460 kts | 226° |
| 2026-04-23 19:17 | 51.82070 | 7.78049 | 32330 ft | 459 kts | 225° |
| 2026-04-23 19:18 | 51.77743 | 7.70511 | 32333 ft | 457 kts | 225° |
| 2026-04-23 19:18 | 51.73410 | 7.62982 | 32332 ft | 457 kts | 224° |
| 2026-04-23 19:19 | 51.68417 | 7.56789 | 32330 ft | 452 kts | 206° |
| 2026-04-23 19:19 | 51.65591 | 7.54566 | 32332 ft | 451 kts | 203° |
| 2026-04-23 19:20 | 51.57086 | 7.48042 | 32337 ft | 451 kts | 203° |
| 2026-04-23 19:20 | 51.51412 | 7.43695 | 32334 ft | 451 kts | 203° |
| 2026-04-23 19:21 | 51.42900 | 7.37197 | 32338 ft | 454 kts | 203° |
| 2026-04-23 19:22 | 51.37125 | 7.32822 | 32336 ft | 463 kts | 203° |
| 2026-04-23 19:22 | 51.28362 | 7.26180 | 32346 ft | 470 kts | 202° |
| 2026-04-23 19:23 | 51.22441 | 7.21707 | 32345 ft | 471 kts | 202° |
| 2026-04-23 19:24 | 51.13562 | 7.15021 | 32547 ft | 469 kts | 202° |
| 2026-04-23 19:24 | 51.10605 | 7.12795 | 32682 ft | 468 kts | 202° |
| 2026-04-23 19:24 | 51.04728 | 7.08388 | 32936 ft | 466 kts | 202° |
| 2026-04-23 19:25 | 50.98871 | 7.04017 | 33194 ft | 464 kts | 202° |
| 2026-04-23 19:25 | 50.93035 | 6.99670 | 33459 ft | 462 kts | 202° |
| 2026-04-23 19:26 | 50.87252 | 6.95380 | 33727 ft | 460 kts | 201° |
| 2026-04-23 19:26 | 50.84355 | 6.93239 | 33868 ft | 459 kts | 201° |
| 2026-04-23 19:27 | 50.78574 | 6.88964 | 34153 ft | 458 kts | 201° |
| 2026-04-23 19:27 | 50.69916 | 6.82581 | 34538 ft | 457 kts | 201° |
| 2026-04-23 19:28 | 50.64158 | 6.78352 | 34783 ft | 456 kts | 201° |
| 2026-04-23 19:28 | 50.58412 | 6.74135 | 35019 ft | 456 kts | 201° |
| 2026-04-23 19:29 | 50.55529 | 6.72023 | 35137 ft | 456 kts | 201° |
| 2026-04-23 19:29 | 50.49784 | 6.67833 | 35375 ft | 455 kts | 201° |
| 2026-04-23 19:30 | 50.43850 | 6.63520 | 35642 ft | 454 kts | 201° |
| 2026-04-23 19:30 | 50.41013 | 6.61462 | 35749 ft | 454 kts | 201° |
| 2026-04-23 19:30 | 50.35254 | 6.57288 | 36006 ft | 453 kts | 201° |
| 2026-04-23 19:31 | 50.32396 | 6.55220 | 36126 ft | 452 kts | 201° |
| 2026-04-23 19:31 | 50.29532 | 6.53151 | 36253 ft | 452 kts | 201° |
| 2026-04-23 19:31 | 50.26682 | 6.51096 | 36379 ft | 451 kts | 201° |
| 2026-04-23 19:31 | 50.23869 | 6.49073 | 36503 ft | 450 kts | 201° |
| 2026-04-23 19:32 | 50.20989 | 6.47002 | 36632 ft | 450 kts | 201° |
| 2026-04-23 19:32 | 50.18087 | 6.45273 | 36764 ft | 445 kts | 193° |
| 2026-04-23 19:32 | 50.15119 | 6.44200 | 36891 ft | 442 kts | 188° |
| 2026-04-23 19:32 | 50.12109 | 6.43262 | 37022 ft | 441 kts | 188° |
| 2026-04-23 19:33 | 50.09100 | 6.42323 | 37158 ft | 440 kts | 188° |
| 2026-04-23 19:33 | 50.06099 | 6.41383 | 37289 ft | 440 kts | 188° |
| 2026-04-23 19:33 | 50.00077 | 6.39493 | 37319 ft | 444 kts | 188° |
| 2026-04-23 19:34 | 49.93992 | 6.37583 | 37315 ft | 447 kts | 188° |
| 2026-04-23 19:34 | 49.87888 | 6.37893 | 37309 ft | 439 kts | 162° |
| 2026-04-23 19:35 | 49.84947 | 6.39197 | 37310 ft | 440 kts | 161° |
| 2026-04-23 19:35 | 49.79046 | 6.41868 | 37312 ft | 442 kts | 161° |
| 2026-04-23 19:36 | 49.73127 | 6.44551 | 37308 ft | 444 kts | 161° |
| 2026-04-23 19:36 | 49.68187 | 6.46774 | 37309 ft | 445 kts | 161° |
| 2026-04-23 19:37 | 49.62198 | 6.49238 | 37315 ft | 447 kts | 165° |
| 2026-04-23 19:37 | 49.55130 | 6.51630 | 37326 ft | 447 kts | 166° |
| 2026-04-23 19:38 | 49.50024 | 6.53323 | 37326 ft | 448 kts | 165° |
| 2026-04-23 19:38 | 49.43948 | 6.55455 | 37327 ft | 448 kts | 164° |
| 2026-04-23 19:39 | 49.37897 | 6.57662 | 37332 ft | 448 kts | 164° |
| 2026-04-23 19:39 | 49.31864 | 6.59846 | 37330 ft | 448 kts | 164° |
| 2026-04-23 19:40 | 49.25801 | 6.62006 | 37334 ft | 447 kts | 164° |
| 2026-04-23 19:40 | 49.19739 | 6.64159 | 37331 ft | 447 kts | 164° |
| 2026-04-23 19:41 | 49.13663 | 6.66319 | 37325 ft | 448 kts | 164° |
| 2026-04-23 19:41 | 49.07587 | 6.68466 | 37317 ft | 449 kts | 164° |
| 2026-04-23 19:42 | 49.01497 | 6.70613 | 37314 ft | 449 kts | 164° |
| 2026-04-23 19:42 | 48.95251 | 6.71507 | 37325 ft | 455 kts | 179° |
| 2026-04-23 19:43 | 48.88926 | 6.71241 | 37324 ft | 455 kts | 179° |
| 2026-04-23 19:43 | 48.82594 | 6.70992 | 37313 ft | 455 kts | 178° |
| 2026-04-23 19:44 | 48.76265 | 6.70739 | 37318 ft | 455 kts | 178° |
| 2026-04-23 19:44 | 48.69964 | 6.70502 | 37314 ft | 455 kts | 178° |
| 2026-04-23 19:45 | 48.63584 | 6.70257 | 37313 ft | 456 kts | 178° |
| 2026-04-23 19:45 | 48.57240 | 6.70004 | 37311 ft | 456 kts | 178° |
| 2026-04-23 19:46 | 48.50894 | 6.69758 | 37310 ft | 456 kts | 178° |
| 2026-04-23 19:46 | 48.44545 | 6.69519 | 37311 ft | 456 kts | 178° |
| 2026-04-23 19:47 | 48.38200 | 6.69273 | 37311 ft | 456 kts | 178° |
| 2026-04-23 19:47 | 48.31892 | 6.69029 | 37296 ft | 457 kts | 178° |
| 2026-04-23 19:48 | 48.25533 | 6.68777 | 37303 ft | 457 kts | 178° |
| 2026-04-23 19:48 | 48.19179 | 6.68542 | 37311 ft | 456 kts | 178° |
| 2026-04-23 19:49 | 48.12824 | 6.68315 | 37303 ft | 456 kts | 178° |
| 2026-04-23 19:49 | 48.06477 | 6.68065 | 37302 ft | 456 kts | 178° |
| 2026-04-23 19:50 | 48.00128 | 6.67815 | 37303 ft | 456 kts | 178° |
| 2026-04-23 19:50 | 47.93783 | 6.67574 | 37296 ft | 456 kts | 178° |
| 2026-04-23 19:51 | 47.87434 | 6.67331 | 37293 ft | 456 kts | 178° |
| 2026-04-23 19:51 | 47.81083 | 6.67093 | 37292 ft | 456 kts | 178° |
| 2026-04-23 19:52 | 47.74729 | 6.66861 | 37276 ft | 457 kts | 178° |
| 2026-04-23 19:52 | 47.68375 | 6.66622 | 37264 ft | 457 kts | 178° |
| 2026-04-23 19:53 | 47.62012 | 6.66389 | 37259 ft | 457 kts | 178° |
| 2026-04-23 19:53 | 47.55649 | 6.66153 | 37261 ft | 457 kts | 178° |
| 2026-04-23 19:54 | 47.49294 | 6.65908 | 37254 ft | 457 kts | 178° |
| 2026-04-23 19:54 | 47.42978 | 6.65299 | 37249 ft | 461 kts | 189° |
| 2026-04-23 19:54 | 47.39858 | 6.63945 | 37254 ft | 465 kts | 200° |
| 2026-04-23 19:55 | 47.36957 | 6.61781 | 37258 ft | 469 kts | 210° |
| 2026-04-23 19:55 | 47.31878 | 6.55761 | 37268 ft | 472 kts | 218° |
| 2026-04-23 19:56 | 47.26871 | 6.49489 | 37266 ft | 472 kts | 217° |
| 2026-04-23 19:56 | 47.21864 | 6.43249 | 37257 ft | 472 kts | 218° |
| 2026-04-23 19:57 | 47.16855 | 6.37000 | 37270 ft | 472 kts | 218° |
| 2026-04-23 19:57 | 47.11850 | 6.30764 | 37279 ft | 472 kts | 218° |
| 2026-04-23 19:58 | 47.06442 | 6.25485 | 37273 ft | 465 kts | 200° |
| 2026-04-23 19:58 | 47.00264 | 6.23097 | 37273 ft | 457 kts | 182° |
| 2026-04-23 19:59 | 46.93936 | 6.22267 | 37267 ft | 457 kts | 182° |
| 2026-04-23 19:59 | 46.87604 | 6.21421 | 37268 ft | 457 kts | 182° |
| 2026-04-23 20:00 | 46.81311 | 6.20579 | 37264 ft | 457 kts | 182° |
| 2026-04-23 20:00 | 46.74973 | 6.19728 | 37271 ft | 457 kts | 182° |
| 2026-04-23 20:01 | 46.68636 | 6.18888 | 37268 ft | 456 kts | 182° |
| 2026-04-23 20:01 | 46.62296 | 6.18064 | 37260 ft | 457 kts | 182° |
| 2026-04-23 20:02 | 46.55970 | 6.17233 | 37251 ft | 457 kts | 183° |
| 2026-04-23 20:02 | 46.49646 | 6.16397 | 37252 ft | 457 kts | 183° |
| 2026-04-23 20:03 | 46.43308 | 6.15560 | 37249 ft | 457 kts | 182° |
| 2026-04-23 20:03 | 46.37024 | 6.14736 | 37231 ft | 457 kts | 183° |
| 2026-04-23 20:04 | 46.30684 | 6.13909 | 37225 ft | 457 kts | 183° |
| 2026-04-23 20:04 | 46.24327 | 6.13061 | 37225 ft | 458 kts | 184° |
| 2026-04-23 20:05 | 46.18007 | 6.11785 | 37224 ft | 459 kts | 187° |
| 2026-04-23 20:05 | 46.11744 | 6.10240 | 37222 ft | 459 kts | 188° |
| 2026-04-23 20:06 | 46.05429 | 6.08736 | 37222 ft | 459 kts | 187° |
| 2026-04-23 20:06 | 45.99111 | 6.07335 | 37229 ft | 459 kts | 187° |
| 2026-04-23 20:07 | 45.92773 | 6.05976 | 37221 ft | 460 kts | 187° |
| 2026-04-23 20:07 | 45.86439 | 6.04602 | 37217 ft | 461 kts | 187° |
| 2026-04-23 20:08 | 45.80092 | 6.03199 | 37223 ft | 461 kts | 187° |
| 2026-04-23 20:08 | 45.73754 | 6.01788 | 37216 ft | 462 kts | 187° |
| 2026-04-23 20:09 | 45.67399 | 6.00381 | 37213 ft | 462 kts | 187° |
| 2026-04-23 20:09 | 45.61042 | 5.98988 | 37224 ft | 463 kts | 187° |
| 2026-04-23 20:10 | 45.55739 | 5.97829 | 37220 ft | 463 kts | 187° |
| 2026-04-23 20:10 | 45.48329 | 5.96205 | 37223 ft | 464 kts | 187° |
| 2026-04-23 20:11 | 45.41967 | 5.94499 | 37228 ft | 465 kts | 191° |
| 2026-04-23 20:11 | 45.35666 | 5.92411 | 37229 ft | 465 kts | 192° |
| 2026-04-23 20:12 | 45.29366 | 5.90316 | 37232 ft | 465 kts | 192° |
| 2026-04-23 20:12 | 45.23042 | 5.88333 | 37230 ft | 464 kts | 191° |
| 2026-04-23 20:13 | 45.16724 | 5.86399 | 37217 ft | 465 kts | 192° |
| 2026-04-23 20:13 | 45.10445 | 5.84464 | 37224 ft | 465 kts | 192° |
| 2026-04-23 20:14 | 45.04123 | 5.82511 | 37225 ft | 465 kts | 192° |
| 2026-04-23 20:14 | 44.97791 | 5.80561 | 37220 ft | 466 kts | 191° |
| 2026-04-23 20:15 | 44.91443 | 5.78613 | 37214 ft | 467 kts | 192° |
| 2026-04-23 20:15 | 44.85089 | 5.76657 | 37221 ft | 467 kts | 192° |
| 2026-04-23 20:16 | 44.78717 | 5.74702 | 37217 ft | 468 kts | 192° |
| 2026-04-23 20:16 | 44.72343 | 5.72755 | 37213 ft | 469 kts | 192° |
| 2026-04-23 20:17 | 44.65999 | 5.70829 | 37209 ft | 469 kts | 192° |
| 2026-04-23 20:17 | 44.59599 | 5.68883 | 37208 ft | 470 kts | 193° |
| 2026-04-23 20:18 | 44.53190 | 5.66940 | 37210 ft | 471 kts | 193° |
| 2026-04-23 20:18 | 44.46771 | 5.65000 | 37208 ft | 472 kts | 193° |
| 2026-04-23 20:19 | 44.40337 | 5.63056 | 37200 ft | 473 kts | 193° |
| 2026-04-23 20:19 | 44.34095 | 5.60212 | 37206 ft | 473 kts | 203° |
| 2026-04-23 20:20 | 44.27973 | 5.56842 | 37197 ft | 473 kts | 203° |
| 2026-04-23 20:20 | 44.21831 | 5.53477 | 37185 ft | 475 kts | 203° |
| 2026-04-23 20:21 | 44.15670 | 5.50121 | 37194 ft | 476 kts | 203° |
| 2026-04-23 20:21 | 44.10532 | 5.47332 | 37203 ft | 477 kts | 203° |
| 2026-04-23 20:22 | 44.04335 | 5.43973 | 37193 ft | 478 kts | 204° |
| 2026-04-23 20:22 | 43.98139 | 5.40600 | 37196 ft | 479 kts | 204° |
| 2026-04-23 20:23 | 43.91933 | 5.37233 | 37199 ft | 480 kts | 204° |
| 2026-04-23 20:23 | 43.85708 | 5.33874 | 37201 ft | 481 kts | 204° |
| 2026-04-23 20:24 | 43.79456 | 5.30506 | 37185 ft | 482 kts | 205° |
| 2026-04-23 20:24 | 43.73195 | 5.27136 | 37191 ft | 483 kts | 205° |
| 2026-04-23 20:25 | 43.66918 | 5.23770 | 37197 ft | 484 kts | 205° |
| 2026-04-23 20:25 | 43.60624 | 5.20404 | 37204 ft | 485 kts | 205° |
| 2026-04-23 20:26 | 43.54324 | 5.17037 | 37210 ft | 485 kts | 205° |
| 2026-04-23 20:26 | 43.48058 | 5.13694 | 37212 ft | 486 kts | 205° |
| 2026-04-23 20:27 | 43.41752 | 5.10332 | 37219 ft | 486 kts | 205° |
| 2026-04-23 20:27 | 43.35842 | 5.06041 | 37223 ft | 477 kts | 219° |
| 2026-04-23 20:28 | 43.30375 | 5.00877 | 37212 ft | 477 kts | 219° |
| 2026-04-23 20:28 | 43.24894 | 4.95737 | 37216 ft | 477 kts | 219° |
| 2026-04-23 20:29 | 43.19411 | 4.90599 | 37207 ft | 477 kts | 219° |
| 2026-04-23 20:29 | 43.13933 | 4.85459 | 37221 ft | 477 kts | 219° |
| 2026-04-23 20:30 | 43.08451 | 4.80334 | 37226 ft | 477 kts | 219° |
| 2026-04-23 20:30 | 42.99871 | 4.73334 | 37232 ft | 480 kts | 214° |
| 2026-04-23 20:31 | 42.94028 | 4.68900 | 37235 ft | 480 kts | 214° |
| 2026-04-23 20:31 | 42.88183 | 4.64476 | 37230 ft | 480 kts | 213° |
| 2026-04-23 20:32 | 42.82330 | 4.60057 | 37233 ft | 480 kts | 213° |
| 2026-04-23 20:32 | 42.76530 | 4.55681 | 37220 ft | 480 kts | 213° |
| 2026-04-23 20:33 | 42.70688 | 4.51296 | 37230 ft | 479 kts | 213° |
| 2026-04-23 20:33 | 42.64849 | 4.46925 | 37232 ft | 479 kts | 213° |
| 2026-04-23 20:34 | 42.59019 | 4.42558 | 37234 ft | 478 kts | 213° |
| 2026-04-23 20:34 | 42.53201 | 4.38207 | 37234 ft | 478 kts | 213° |
| 2026-04-23 20:35 | 42.47372 | 4.33859 | 37226 ft | 478 kts | 213° |
| 2026-04-23 20:35 | 42.41537 | 4.29526 | 37226 ft | 477 kts | 213° |
| 2026-04-23 20:36 | 42.35719 | 4.25206 | 37224 ft | 477 kts | 213° |
| 2026-04-23 20:36 | 42.29897 | 4.20895 | 37214 ft | 477 kts | 213° |
| 2026-04-23 20:37 | 42.24076 | 4.16599 | 37211 ft | 477 kts | 213° |
| 2026-04-23 20:37 | 42.18252 | 4.12309 | 37221 ft | 476 kts | 213° |
| 2026-04-23 20:38 | 42.12475 | 4.08061 | 37218 ft | 476 kts | 212° |
| 2026-04-23 20:38 | 42.06671 | 4.03807 | 37220 ft | 475 kts | 213° |
| 2026-04-23 20:39 | 42.00866 | 3.99557 | 37216 ft | 474 kts | 213° |
| 2026-04-23 20:39 | 41.95060 | 3.95324 | 37212 ft | 475 kts | 211° |
| 2026-04-23 20:40 | 41.88747 | 3.92491 | 37202 ft | 484 kts | 193° |
| 2026-04-23 20:40 | 41.82098 | 3.90974 | 37209 ft | 485 kts | 193° |
| 2026-04-23 20:41 | 41.75450 | 3.89449 | 37209 ft | 485 kts | 193° |
| 2026-04-23 20:41 | 41.68798 | 3.87915 | 37206 ft | 485 kts | 193° |
| 2026-04-23 20:42 | 41.62242 | 3.86410 | 37195 ft | 473 kts | 193° |
| 2026-04-23 20:42 | 41.55758 | 3.84937 | 37026 ft | 467 kts | 193° |
| 2026-04-23 20:43 | 41.52603 | 3.84217 | 36760 ft | 466 kts | 193° |
| 2026-04-23 20:43 | 41.49407 | 3.83485 | 36491 ft | 466 kts | 193° |
| 2026-04-23 20:43 | 41.46211 | 3.82745 | 36236 ft | 466 kts | 193° |
| 2026-04-23 20:43 | 41.43015 | 3.82005 | 35980 ft | 467 kts | 194° |
| 2026-04-23 20:44 | 41.39816 | 3.81269 | 35731 ft | 467 kts | 193° |
| 2026-04-23 20:44 | 41.36602 | 3.80534 | 35470 ft | 468 kts | 193° |
| 2026-04-23 20:44 | 41.33397 | 3.79805 | 35203 ft | 468 kts | 193° |
| 2026-04-23 20:44 | 41.30186 | 3.79073 | 34973 ft | 468 kts | 193° |
| 2026-04-23 20:45 | 41.26969 | 3.78342 | 34725 ft | 469 kts | 193° |
| 2026-04-23 20:45 | 41.23753 | 3.77616 | 34486 ft | 469 kts | 193° |
| 2026-04-23 20:45 | 41.20528 | 3.76892 | 34245 ft | 470 kts | 193° |
| 2026-04-23 20:45 | 41.17303 | 3.76159 | 33986 ft | 470 kts | 194° |
| 2026-04-23 20:46 | 41.14153 | 3.75093 | 33706 ft | 464 kts | 204° |
| 2026-04-23 20:46 | 41.11158 | 3.73564 | 33436 ft | 462 kts | 206° |
| 2026-04-23 20:46 | 41.08163 | 3.72010 | 33168 ft | 460 kts | 206° |
| 2026-04-23 20:46 | 41.05181 | 3.70466 | 32894 ft | 458 kts | 206° |
| 2026-04-23 20:47 | 41.02251 | 3.68956 | 32630 ft | 457 kts | 205° |
| 2026-04-23 20:47 | 40.99292 | 3.67437 | 32371 ft | 455 kts | 205° |
| 2026-04-23 20:47 | 40.96341 | 3.65924 | 32115 ft | 454 kts | 205° |
| 2026-04-23 20:47 | 40.93403 | 3.64419 | 31865 ft | 452 kts | 205° |
| 2026-04-23 20:48 | 40.90471 | 3.62919 | 31608 ft | 451 kts | 205° |
| 2026-04-23 20:48 | 40.87554 | 3.61424 | 31357 ft | 449 kts | 205° |
| 2026-04-23 20:48 | 40.84640 | 3.59930 | 31110 ft | 448 kts | 205° |
| 2026-04-23 20:48 | 40.81733 | 3.58439 | 30862 ft | 447 kts | 205° |
| 2026-04-23 20:49 | 40.78842 | 3.56963 | 30615 ft | 446 kts | 205° |
| 2026-04-23 20:49 | 40.75952 | 3.55491 | 30375 ft | 444 kts | 205° |
| 2026-04-23 20:49 | 40.73072 | 3.54026 | 30116 ft | 443 kts | 205° |
| 2026-04-23 20:49 | 40.70201 | 3.52565 | 29824 ft | 441 kts | 205° |
| 2026-04-23 20:50 | 40.67345 | 3.51114 | 29554 ft | 439 kts | 205° |
| 2026-04-23 20:50 | 40.64530 | 3.49685 | 29277 ft | 437 kts | 205° |
| 2026-04-23 20:50 | 40.61699 | 3.48245 | 29003 ft | 435 kts | 205° |
| 2026-04-23 20:50 | 40.58848 | 3.46788 | 28720 ft | 434 kts | 206° |
| 2026-04-23 20:51 | 40.56071 | 3.45365 | 28456 ft | 432 kts | 205° |
| 2026-04-23 20:51 | 40.53271 | 3.43944 | 28187 ft | 430 kts | 205° |
| 2026-04-23 20:51 | 40.50478 | 3.42535 | 27920 ft | 428 kts | 205° |
| 2026-04-23 20:51 | 40.47708 | 3.41140 | 27659 ft | 427 kts | 205° |
| 2026-04-23 20:52 | 40.44858 | 3.39999 | 27402 ft | 429 kts | 195° |
| 2026-04-23 20:52 | 40.41896 | 3.39468 | 27127 ft | 431 kts | 186° |
| 2026-04-23 20:52 | 40.38895 | 3.39531 | 26875 ft | 431 kts | 180° |
| 2026-04-23 20:52 | 40.35903 | 3.39717 | 26622 ft | 429 kts | 180° |
| 2026-04-23 20:53 | 40.32924 | 3.39893 | 26371 ft | 428 kts | 180° |
| 2026-04-23 20:53 | 40.29951 | 3.40060 | 26123 ft | 426 kts | 180° |
| 2026-04-23 20:53 | 40.26994 | 3.40223 | 25879 ft | 424 kts | 180° |
| 2026-04-23 20:53 | 40.24048 | 3.40385 | 25642 ft | 423 kts | 180° |
| 2026-04-23 20:54 | 40.21112 | 3.40546 | 25390 ft | 421 kts | 180° |
| 2026-04-23 20:54 | 40.18236 | 3.40706 | 25064 ft | 416 kts | 180° |
| 2026-04-23 20:54 | 40.15353 | 3.40868 | 24599 ft | 414 kts | 180° |
| 2026-04-23 20:54 | 40.12484 | 3.41030 | 24140 ft | 412 kts | 180° |
| 2026-04-23 20:55 | 40.09629 | 3.41192 | 23668 ft | 410 kts | 180° |
| 2026-04-23 20:55 | 40.06780 | 3.41352 | 23144 ft | 408 kts | 180° |
| 2026-04-23 20:55 | 40.03963 | 3.41513 | 22674 ft | 404 kts | 180° |
| 2026-04-23 20:55 | 40.01151 | 3.41672 | 22199 ft | 401 kts | 180° |
| 2026-04-23 20:56 | 39.98377 | 3.41827 | 21730 ft | 398 kts | 180° |
| 2026-04-23 20:56 | 39.95609 | 3.41983 | 21242 ft | 396 kts | 180° |
| 2026-04-23 20:56 | 39.92861 | 3.42138 | 20769 ft | 394 kts | 180° |
| 2026-04-23 20:56 | 39.90125 | 3.42291 | 20282 ft | 393 kts | 180° |
| 2026-04-23 20:57 | 39.87397 | 3.42446 | 19799 ft | 392 kts | 180° |
| 2026-04-23 20:57 | 39.84677 | 3.42598 | 19318 ft | 390 kts | 180° |
| 2026-04-23 20:57 | 39.81967 | 3.42750 | 18839 ft | 389 kts | 180° |
| 2026-04-23 20:57 | 39.79260 | 3.42904 | 18347 ft | 388 kts | 180° |
| 2026-04-23 20:58 | 39.76558 | 3.43056 | 17841 ft | 386 kts | 180° |
| 2026-04-23 20:58 | 39.73899 | 3.42919 | 17365 ft | 379 kts | 193° |
| 2026-04-23 20:58 | 39.71455 | 3.41931 | 16930 ft | 370 kts | 210° |
| 2026-04-23 20:58 | 39.69318 | 3.40137 | 16481 ft | 360 kts | 225° |
| 2026-04-23 20:59 | 39.67675 | 3.37746 | 16040 ft | 351 kts | 240° |
| 2026-04-23 20:59 | 39.66525 | 3.34985 | 15615 ft | 346 kts | 248° |
| 2026-04-23 20:59 | 39.65462 | 3.32203 | 15194 ft | 344 kts | 248° |
| 2026-04-23 20:59 | 39.64391 | 3.29432 | 14763 ft | 342 kts | 247° |
| 2026-04-23 21:00 | 39.63335 | 3.26715 | 14630 ft | 331 kts | 248° |
| 2026-04-23 21:00 | 39.62316 | 3.24096 | 14505 ft | 320 kts | 248° |
| 2026-04-23 21:00 | 39.61330 | 3.21557 | 14377 ft | 310 kts | 248° |
| 2026-04-23 21:00 | 39.60366 | 3.19072 | 14087 ft | 307 kts | 248° |
| 2026-04-23 21:01 | 39.59407 | 3.16608 | 13673 ft | 307 kts | 248° |
| 2026-04-23 21:01 | 39.58421 | 3.14097 | 12932 ft | 317 kts | 247° |
| 2026-04-23 21:01 | 39.57423 | 3.11537 | 12449 ft | 318 kts | 247° |
| 2026-04-23 21:01 | 39.56433 | 3.08988 | 12014 ft | 317 kts | 247° |
| 2026-04-23 21:02 | 39.55780 | 3.07299 | 11739 ft | 316 kts | 247° |
| 2026-04-23 21:02 | 39.54473 | 3.03899 | 11189 ft | 313 kts | 247° |
| 2026-04-23 21:02 | 39.53520 | 3.01364 | 10781 ft | 312 kts | 247° |
| 2026-04-23 21:02 | 39.52582 | 2.98847 | 10493 ft | 306 kts | 247° |
| 2026-04-23 21:03 | 39.51674 | 2.96410 | 10378 ft | 295 kts | 247° |
| 2026-04-23 21:03 | 39.50791 | 2.94051 | 10142 ft | 289 kts | 247° |
| 2026-04-23 21:03 | 39.49921 | 2.91717 | 9794 ft | 287 kts | 247° |
| 2026-04-23 21:03 | 39.49060 | 2.89392 | 9391 ft | 286 kts | 247° |
| 2026-04-23 21:04 | 39.48208 | 2.87073 | 8988 ft | 285 kts | 247° |
| 2026-04-23 21:04 | 39.47372 | 2.84776 | 8587 ft | 284 kts | 247° |
| 2026-04-23 21:04 | 39.46536 | 2.82460 | 8179 ft | 284 kts | 247° |
| 2026-04-23 21:04 | 39.45705 | 2.80143 | 7765 ft | 284 kts | 247° |
| 2026-04-23 21:05 | 39.44882 | 2.77830 | 7356 ft | 283 kts | 247° |
| 2026-04-23 21:05 | 39.44058 | 2.75515 | 6954 ft | 282 kts | 247° |
| 2026-04-23 21:05 | 39.43248 | 2.73205 | 6546 ft | 282 kts | 248° |
| 2026-04-23 21:05 | 39.42448 | 2.70886 | 6112 ft | 283 kts | 247° |
| 2026-04-23 21:06 | 39.41658 | 2.68563 | 5696 ft | 282 kts | 247° |
| 2026-04-23 21:06 | 39.41125 | 2.66991 | 5391 ft | 282 kts | 246° |
| 2026-04-23 21:06 | 39.40352 | 2.64660 | 4953 ft | 283 kts | 247° |
| 2026-04-23 21:06 | 39.39658 | 2.62279 | 4551 ft | 281 kts | 258° |
| 2026-04-23 21:07 | 39.39511 | 2.59820 | 4425 ft | 268 kts | 270° |
| 2026-04-23 21:07 | 39.39515 | 2.57495 | 4294 ft | 256 kts | 271° |
| 2026-04-23 21:07 | 39.39532 | 2.55207 | 4172 ft | 246 kts | 271° |
| 2026-04-23 21:07 | 39.39549 | 2.53068 | 4043 ft | 236 kts | 271° |
| 2026-04-23 21:08 | 39.39569 | 2.50981 | 3880 ft | 229 kts | 271° |
| 2026-04-23 21:08 | 39.39652 | 2.48936 | 3603 ft | 226 kts | 286° |
| 2026-04-23 21:08 | 39.40400 | 2.47221 | 3299 ft | 218 kts | 324° |
| 2026-04-23 21:08 | 39.41742 | 2.46513 | 2969 ft | 206 kts | 4° |
| 2026-04-23 21:09 | 39.43059 | 2.47005 | 2637 ft | 196 kts | 41° |
| 2026-04-23 21:09 | 39.43904 | 2.48323 | 2371 ft | 190 kts | 61° |
| 2026-04-23 21:09 | 39.44599 | 2.49789 | 2070 ft | 191 kts | 61° |
| 2026-04-23 21:09 | 39.45295 | 2.51250 | 2002 ft | 190 kts | 60° |
| 2026-04-23 21:10 | 39.45989 | 2.52705 | 2007 ft | 190 kts | 61° |
| 2026-04-23 21:10 | 39.46684 | 2.54163 | 2010 ft | 190 kts | 61° |
| 2026-04-23 21:10 | 39.47379 | 2.55629 | 2003 ft | 190 kts | 61° |
| 2026-04-23 21:10 | 39.48072 | 2.57083 | 2010 ft | 190 kts | 61° |
| 2026-04-23 21:11 | 39.48757 | 2.58522 | 2011 ft | 188 kts | 61° |
| 2026-04-23 21:11 | 39.49437 | 2.59950 | 1931 ft | 183 kts | 60° |
| 2026-04-23 21:11 | 39.50084 | 2.61310 | 1775 ft | 175 kts | 60° |
| 2026-04-23 21:11 | 39.50710 | 2.62628 | 1523 ft | 168 kts | 60° |
| 2026-04-23 21:12 | 39.51294 | 2.63856 | 1322 ft | 151 kts | 61° |
| 2026-04-23 21:12 | 39.51819 | 2.64961 | 1131 ft | 139 kts | 63° |
| 2026-04-23 21:12 | 39.52316 | 2.66009 | 950 ft | 134 kts | 60° |
| 2026-04-23 21:12 | 39.52807 | 2.67045 | 777 ft | 135 kts | 60° |
| 2026-04-23 21:13 | 39.53303 | 2.68092 | 593 ft | 135 kts | 59° |
| 2026-04-23 21:13 | 39.53795 | 2.69130 | 412 ft | 136 kts | 59° |
| 2026-04-23 21:13 | 39.54277 | 2.70147 | 241 ft | 134 kts | 58° |
| 2026-04-23 21:13 | 39.54771 | 2.71178 | 62 ft | 133 kts | 59° |
| 2026-04-23 21:14 | 39.55197 | 2.72087 | 37 ft | 95 kts | 58° |
| 2026-04-23 21:14 | 39.55448 | 2.72615 | 38 ft | 28 kts | 59° |
| 2026-04-23 21:14 | 39.55496 | 2.72847 | 38 ft | 26 kts | 86° |
| 2026-04-23 21:14 | 39.55499 | 2.72931 | 36 ft | 8 kts | 88° |
| 2026-04-23 21:15 | 39.55499 | 2.73007 | 38 ft | 10 kts | 89° |
| 2026-04-23 21:15 | 39.55500 | 2.73102 | 38 ft | 10 kts | 91° |
| 2026-04-23 21:15 | 39.55469 | 2.73105 | 38 ft | 6 kts | 235° |
| 2026-04-23 21:15 | 39.55432 | 2.73029 | 38 ft | 14 kts | 239° |
| 2026-04-23 21:16 | 39.55359 | 2.72986 | 38 ft | 12 kts | 162° |
| 2026-04-23 21:16 | 39.55290 | 2.73033 | 38 ft | 11 kts | 166° |
| 2026-04-23 21:16 | 39.55233 | 2.73001 | 38 ft | 9 kts | 237° |
| 2026-04-23 21:16 | 39.55198 | 2.72948 | 37 ft | 6 kts | 194° |
| 2026-04-23 21:17 | 39.55158 | 2.72959 | 38 ft | 5 kts | 160° |
| 2026-04-23 21:17 | 39.55129 | 2.72972 | 38 ft | 0 kts | 162° |